Time;durP1;ratioP1;P1;durP2;ratioP2;P2;SDS_P1;SDS_P2;PMS_P1;PMS_P2;Temp;Humidity;BMP_temperature;BMP_pressure;BME280_temperature;BME280_humidity;BME280_pressure;Samples;Min_cycle;Max_cycle;Signal;HPM_P1;HPM_P2
2022/08/31 00:04:59;;;;;;;5.37;4.77;;;18.00;1.00;;;;;;5089533;28;20466;-55
2022/08/31 00:07:26;;;;;;;6.40;4.77;;;18.00;1.00;;;;;;5090347;28;20433;-55
2022/08/31 00:09:52;;;;;;;5.73;5.00;;;18.10;1.00;;;;;;5089838;28;20187;-57
2022/08/31 00:12:18;;;;;;;7.27;5.30;;;18.10;1.00;;;;;;5089308;28;20476;-56
2022/08/31 00:14:44;;;;;;;6.30;4.83;;;18.00;1.00;;;;;;5089843;28;20440;-55
2022/08/31 00:17:10;;;;;;;5.33;4.83;;;18.00;1.00;;;;;;5089687;28;20189;-55
2022/08/31 00:19:35;;;;;;;5.87;5.27;;;18.00;1.00;;;;;;5088709;28;20186;-56
2022/08/31 00:22:01;;;;;;;5.43;4.90;;;17.90;1.00;;;;;;5089733;28;20643;-55
2022/08/31 00:24:27;;;;;;;5.60;4.70;;;17.90;1.00;;;;;;5089727;28;20228;-54
2022/08/31 00:26:53;;;;;;;7.83;4.73;;;17.80;1.00;;;;;;5089666;28;20480;-55
2022/08/31 00:29:18;;;;;;;5.23;4.77;;;17.80;1.00;;;;;;5088548;28;20186;-55
2022/08/31 00:31:44;;;;;;;5.33;4.83;;;17.80;1.00;;;;;;5089584;28;20216;-56
2022/08/31 00:34:10;;;;;;;6.10;4.17;;;17.70;1.00;;;;;;5089437;28;20217;-56
2022/08/31 00:36:36;;;;;;;5.20;4.70;;;17.70;1.00;;;;;;5090286;28;20174;-56
2022/08/31 00:39:02;;;;;;;5.10;4.50;;;17.80;1.00;;;;;;5088804;28;20942;-55
2022/08/31 00:41:29;;;;;;;9.13;4.80;;;17.80;1.00;;;;;;5088805;28;20187;-55
2022/08/31 00:44:01;;;;;;;8.33;5.03;;;17.80;1.00;;;;;;5088613;28;20448;-54
2022/08/31 00:46:31;;;;;;;9.80;5.00;;;17.60;1.00;;;;;;5088306;28;20468;-56
2022/08/31 00:49:10;;;;;;;6.23;5.40;;;17.60;1.00;;;;;;5088822;28;20452;-56
2022/08/31 00:51:41;;;;;;;6.77;5.93;;;17.50;1.00;;;;;;5089444;28;20476;-55
2022/08/31 00:54:08;;;;;;;8.30;6.60;;;17.40;1.00;;;;;;5089108;28;20965;-55
2022/08/31 00:56:34;;;;;;;10.23;7.33;;;17.30;1.00;;;;;;5088163;28;20501;-56
2022/08/31 00:59:01;;;;;;;9.43;6.87;;;17.30;1.00;;;;;;5088590;28;20456;-55
2022/08/31 01:01:27;;;;;;;9.10;6.40;;;17.30;1.00;;;;;;5089118;28;20468;-56
2022/08/31 01:03:53;;;;;;;6.33;4.80;;;17.30;1.00;;;;;;5088259;28;20487;-55
2022/08/31 01:06:22;;;;;;;9.20;6.03;;;17.20;1.00;;;;;;5088277;28;20452;-56
2022/08/31 01:08:50;;;;;;;5.40;4.90;;;17.20;1.00;;;;;;5086530;28;20460;-55
2022/08/31 01:11:22;;;;;;;6.10;4.57;;;17.20;1.00;;;;;;5088988;28;20502;-56
2022/08/31 01:13:48;;;;;;;5.77;5.13;;;17.20;1.00;;;;;;5087078;28;20436;-54
2022/08/31 01:16:27;;;;;;;6.90;5.40;;;17.20;1.00;;;;;;5089296;28;20531;-54
2022/08/31 01:18:57;;;;;;;7.73;5.87;;;17.30;1.00;;;;;;5089155;28;20293;-54
2022/08/31 01:21:40;;;;;;;5.90;5.40;;;17.30;1.00;;;;;;5089162;28;20445;-56
2022/08/31 01:24:08;;;;;;;6.63;5.40;;;17.20;1.00;;;;;;5087997;28;20440;-55
2022/08/31 01:26:40;;;;;;;6.40;5.60;;;17.20;1.00;;;;;;5088255;28;20979;-55
2022/08/31 01:29:06;;;;;;;5.87;5.00;;;17.30;1.00;;;;;;5089734;28;20436;-56
2022/08/31 01:31:45;;;;;;;7.40;5.70;;;17.30;1.00;;;;;;5088544;28;20559;-55
2022/08/31 01:34:11;;;;;;;7.50;5.30;;;17.30;1.00;;;;;;5088559;28;20452;-55
2022/08/31 01:36:38;;;;;;;6.43;5.83;;;17.30;1.00;;;;;;5088606;28;20448;-55
2022/08/31 01:39:06;;;;;;;6.90;5.93;;;18.60;1.00;;;;;;5089121;28;20440;-55
2022/08/31 01:41:31;;;;;;;8.00;6.30;;;17.20;1.00;;;;;;5088119;28;20483;-55
2022/08/31 01:43:57;;;;;;;7.80;6.67;;;17.10;1.00;;;;;;5089645;28;20467;-55
2022/08/31 01:46:23;;;;;;;11.63;8.90;;;17.10;1.00;;;;;;5087477;28;20209;-56
2022/08/31 01:48:51;;;;;;;12.43;8.30;;;17.20;1.00;;;;;;5070318;28;20613;-55
2022/08/31 01:51:41;;;;;;;9.10;6.87;;;17.20;1.00;;;;;;5071148;28;20468;-56
2022/08/31 01:54:08;;;;;;;9.00;6.23;;;17.20;1.00;;;;;;5088599;28;20460;-56
2022/08/31 01:56:38;;;;;;;7.80;6.80;;;17.20;1.00;;;;;;5070744;28;20440;-54
2022/08/31 01:59:06;;;;;;;9.70;6.20;;;17.20;1.00;;;;;;5092327;28;20829;-55
2022/08/31 02:01:34;;;;;;;8.07;5.63;;;17.20;1.00;;;;;;5091047;28;20444;-55
2022/08/31 02:04:02;;;;;;;6.20;5.60;;;17.20;1.00;;;;;;5090164;28;20776;-55
2022/08/31 02:06:27;;;;;;;6.40;5.80;;;17.10;1.00;;;;;;5073784;28;20447;-55
2022/08/31 02:08:53;;;;;;;6.40;5.30;;;17.20;1.00;;;;;;5091509;28;21050;-56
2022/08/31 02:11:19;;;;;;;7.87;5.30;;;17.20;1.00;;;;;;5091764;28;20206;-56
2022/08/31 02:13:45;;;;;;;6.20;5.60;;;17.10;1.00;;;;;;5091245;28;20438;-55
2022/08/31 02:16:20;;;;;;;6.60;5.63;;;17.10;1.00;;;;;;5091815;28;20660;-56
2022/08/31 02:18:46;;;;;;;5.90;5.30;;;17.20;1.00;;;;;;5091387;28;20182;-55
2022/08/31 02:21:12;;;;;;;8.10;5.57;;;17.10;1.00;;;;;;5091313;28;20520;-57
2022/08/31 02:23:38;;;;;;;6.60;5.57;;;16.90;1.00;;;;;;5090263;28;20187;-56
2022/08/31 02:26:04;;;;;;;5.80;5.20;;;16.90;1.00;;;;;;5091648;28;20441;-55
2022/08/31 02:28:30;;;;;;;5.60;5.10;;;17.00;1.00;;;;;;5091417;28;20448;-55
2022/08/31 02:30:55;;;;;;;7.17;5.83;;;17.10;1.00;;;;;;5091751;28;20579;-56
2022/08/31 02:33:23;;;;;;;6.43;4.50;;;17.10;1.00;;;;;;5089253;28;20266;-56
2022/08/31 02:35:49;;;;;;;13.87;7.33;;;17.00;1.00;;;;;;5091234;28;20274;-55
2022/08/31 02:38:15;;;;;;;10.73;6.87;;;16.90;1.00;;;;;;5089877;28;20565;-55
2022/08/31 02:40:40;;;;;;;7.03;5.57;;;16.80;1.00;;;;;;5090941;28;20495;-56
2022/08/31 02:43:08;;;;;;;7.40;5.83;;;16.90;1.00;;;;;;5089743;28;20536;-55
2022/08/31 02:45:35;;;;;;;7.20;5.90;;;16.90;1.00;;;;;;5090230;28;20270;-55
2022/08/31 02:48:02;;;;;;;5.77;5.20;;;16.80;1.00;;;;;;5090174;28;20457;-55
2022/08/31 02:50:28;;;;;;;6.40;4.90;;;16.70;1.00;;;;;;5090742;28;20483;-54
2022/08/31 02:52:55;;;;;;;6.53;5.63;;;16.70;1.00;;;;;;5089621;28;20500;-56
2022/08/31 02:55:26;;;;;;;5.73;5.23;;;16.60;1.00;;;;;;5091494;28;20703;-54
2022/08/31 02:57:52;;;;;;;8.43;5.67;;;16.70;1.00;;;;;;5090063;28;20447;-55
2022/08/31 03:00:20;;;;;;;7.17;5.77;;;16.70;1.00;;;;;;5089788;28;20888;-56
2022/08/31 03:02:46;;;;;;;6.10;5.57;;;16.80;1.00;;;;;;5089994;28;20777;-56
2022/08/31 03:05:12;;;;;;;6.93;5.50;;;16.80;1.00;;;;;;5090969;28;20441;-55
2022/08/31 03:07:37;;;;;;;6.10;5.50;;;16.70;1.00;;;;;;5089912;28;20818;-55
2022/08/31 03:10:10;;;;;;;6.47;5.80;;;16.80;1.00;;;;;;5089227;28;20524;-55
2022/08/31 03:12:37;;;;;;;6.73;4.93;;;16.80;1.00;;;;;;5089927;28;20471;-54
2022/08/31 03:15:05;;;;;;;7.00;5.50;;;16.80;1.00;;;;;;5071381;28;20932;-54
2022/08/31 03:17:31;;;;;;;8.60;5.73;;;16.80;1.00;;;;;;5090016;28;20822;-55
2022/08/31 03:19:59;;;;;;;6.37;5.60;;;16.80;1.00;;;;;;5088181;28;20449;-56
2022/08/31 03:22:26;;;;;;;7.97;7.10;;;16.80;1.00;;;;;;5091233;28;20281;-53
2022/08/31 03:24:52;;;;;;;7.77;6.30;;;16.80;1.00;;;;;;5089139;28;21009;-55
2022/08/31 03:27:17;;;;;;;6.87;6.13;;;16.80;1.00;;;;;;5088899;28;20550;-55
2022/08/31 03:29:43;;;;;;;9.10;6.37;;;16.80;1.00;;;;;;5090654;28;20198;-56
2022/08/31 03:32:18;;;;;;;7.87;7.07;;;16.80;1.00;;;;;;5088581;28;20305;-55
2022/08/31 03:34:44;;;;;;;6.27;5.47;;;16.80;1.00;;;;;;5089898;28;20194;-55
2022/08/31 03:37:09;;;;;;;6.20;5.03;;;16.80;1.00;;;;;;5088545;28;20444;-55
2022/08/31 03:39:35;;;;;;;6.10;5.50;;;16.70;1.00;;;;;;5088371;28;20229;-55
2022/08/31 03:42:00;;;;;;;9.13;6.20;;;16.70;1.00;;;;;;5090009;28;20194;-56
2022/08/31 03:44:26;;;;;;;6.73;6.13;;;16.70;1.00;;;;;;5089137;28;20190;-56
2022/08/31 03:46:55;;;;;;;7.47;6.20;;;16.60;1.00;;;;;;5087775;28;20197;-55
2022/08/31 03:49:21;;;;;;;7.03;5.37;;;16.60;1.00;;;;;;5089545;28;20191;-55
2022/08/31 03:51:47;;;;;;;5.80;5.03;;;16.60;1.00;;;;;;5088133;28;20573;-55
2022/08/31 03:54:13;;;;;;;7.73;6.10;;;16.70;1.00;;;;;;5089967;28;20591;-58
2022/08/31 03:56:39;;;;;;;6.60;5.90;;;16.70;1.00;;;;;;5087132;28;20663;-54
2022/08/31 03:59:06;;;;;;;8.10;6.70;;;16.60;1.00;;;;;;5091060;28;20447;-55
2022/08/31 04:01:33;;;;;;;6.67;5.53;;;16.60;1.00;;;;;;5088458;28;20831;-55
2022/08/31 04:03:59;;;;;;;7.07;6.03;;;16.70;1.00;;;;;;5086908;28;20452;-54
2022/08/31 04:06:26;;;;;;;9.70;5.73;;;16.70;1.00;;;;;;5070972;28;20441;-56
2022/08/31 04:08:51;;;;;;;11.20;6.20;;;16.70;1.00;;;;;;5088539;28;20190;-55
2022/08/31 04:11:18;;;;;;;7.47;5.70;;;16.70;1.00;;;;;;5089224;28;20468;-55
2022/08/31 04:13:45;;;;;;;6.60;5.73;;;16.80;1.00;;;;;;5088919;28;20182;-56
2022/08/31 04:16:54;;;;;;;7.10;5.83;;;16.90;1.00;;;;;;5087127;28;20447;-55
2022/08/31 04:19:20;;;;;;;9.40;6.57;;;16.80;1.00;;;;;;5089069;28;20452;-54
2022/08/31 04:21:54;;;;;;;9.13;6.23;;;16.70;1.00;;;;;;5086907;28;20441;-57
2022/08/31 04:24:20;;;;;;;6.30;5.70;;;16.60;1.00;;;;;;5086012;28;20548;-57
2022/08/31 04:26:46;;;;;;;8.67;6.53;;;16.40;1.00;;;;;;5087263;28;20452;-56
2022/08/31 04:29:11;;;;;;;7.03;5.60;;;16.40;1.00;;;;;;5088380;28;20187;-59
2022/08/31 04:31:37;;;;;;;10.03;6.80;;;16.40;1.00;;;;;;5086651;28;20214;-57
2022/08/31 04:34:04;;;;;;;11.37;6.10;;;16.30;1.00;;;;;;5086189;28;20186;-57
2022/08/31 04:36:31;;;;;;;15.90;6.83;;;16.30;1.00;;;;;;5089536;28;20218;-57
2022/08/31 04:38:58;;;;;;;9.00;6.20;;;16.30;1.00;;;;;;5090382;28;20945;-57
2022/08/31 04:41:26;;;;;;;10.27;6.47;;;16.30;1.00;;;;;;5087400;28;20451;-58
2022/08/31 04:43:53;;;;;;;20.50;13.40;;;16.30;1.00;;;;;;5088752;28;20783;-57
2022/08/31 04:46:24;;;;;;;11.43;7.40;;;16.30;1.00;;;;;;5087564;28;20449;-55
2022/08/31 04:48:50;;;;;;;13.20;6.83;;;16.60;1.00;;;;;;5085583;28;20489;-55
2022/08/31 04:51:26;;;;;;;12.37;7.13;;;16.60;1.00;;;;;;5088235;28;20479;-55
2022/08/31 04:53:53;;;;;;;10.63;6.60;;;16.60;1.00;;;;;;5088898;28;20822;-57
2022/08/31 04:56:30;;;;;;;7.13;6.40;;;16.60;1.00;;;;;;5090265;28;20946;-56
2022/08/31 04:58:58;;;;;;;8.07;6.50;;;16.60;1.00;;;;;;5089184;28;20942;-56
2022/08/31 05:01:29;;;;;;;9.00;6.17;;;16.70;1.00;;;;;;5089443;28;20486;-55
2022/08/31 05:03:56;;;;;;;7.23;5.90;;;16.70;1.00;;;;;;5087822;28;20451;-55
2022/08/31 05:06:32;;;;;;;8.07;6.10;;;16.80;1.00;;;;;;5089836;28;20806;-55
2022/08/31 05:09:01;;;;;;;7.77;6.07;;;16.90;1.00;;;;;;5087936;28;20949;-55
2022/08/31 05:11:28;;;;;;;6.60;5.90;;;17.00;1.00;;;;;;5087771;28;20677;-55
2022/08/31 05:13:57;;;;;;;7.93;6.00;;;17.00;1.00;;;;;;5085138;28;20958;-56
2022/08/31 05:16:40;;;;;;;6.03;5.43;;;17.00;1.00;;;;;;5087386;28;20475;-55
2022/08/31 05:19:06;;;;;;;6.33;5.73;;;17.10;1.00;;;;;;5088930;28;20996;-56
2022/08/31 05:21:35;;;;;;;9.37;6.37;;;17.20;1.00;;;;;;5087581;28;20451;-56
2022/08/31 05:24:21;;;;;;;8.90;5.87;;;17.20;1.00;;;;;;5089621;28;20429;-56
2022/08/31 05:26:54;;;;;;;6.50;5.77;;;17.30;1.00;;;;;;5067209;28;21151;-55
2022/08/31 05:29:24;;;;;;;6.43;5.83;;;17.50;1.00;;;;;;5086387;28;20456;-55
2022/08/31 05:31:50;;;;;;;7.83;5.90;;;17.50;1.00;;;;;;5088651;28;21020;-55
2022/08/31 05:34:17;;;;;;;7.30;5.40;;;17.60;1.00;;;;;;5091083;28;20436;-55
2022/08/31 05:36:47;;;;;;;8.13;5.70;;;17.60;1.00;;;;;;5093048;28;20532;-57
2022/08/31 05:39:13;;;;;;;9.37;7.23;;;17.70;1.00;;;;;;5091910;28;20474;-56
2022/08/31 05:41:41;;;;;;;10.73;5.87;;;17.70;1.00;;;;;;5093651;28;20527;-55
2022/08/31 05:44:07;;;;;;;8.50;5.70;;;17.80;1.00;;;;;;5075206;28;20255;-55
2022/08/31 05:46:34;;;;;;;6.80;5.80;;;17.80;1.00;;;;;;5092889;28;20423;-55
2022/08/31 05:48:59;;;;;;;8.13;6.23;;;17.90;1.00;;;;;;5092230;28;20441;-57
2022/08/31 05:51:25;;;;;;;10.73;6.90;;;18.00;1.00;;;;;;5093358;28;20464;-55
2022/08/31 05:53:51;;;;;;;6.33;5.53;;;18.20;1.00;;;;;;5092957;28;20265;-56
2022/08/31 05:56:29;;;;;;;7.87;6.40;;;18.30;1.00;;;;;;5092844;28;20179;-55
2022/08/31 05:58:56;;;;;;;7.57;6.23;;;16.90;1.00;;;;;;5091327;28;20829;-56
2022/08/31 06:01:37;;;;;;;7.80;6.13;;;18.60;1.00;;;;;;5093323;28;20467;-55
2022/08/31 06:04:04;;;;;;;14.60;6.53;;;18.70;1.00;;;;;;5091423;28;20929;-55
2022/08/31 06:09:41;;;;;;;7.40;5.67;;;18.90;1.00;;;;;;5091872;28;20498;-54
2022/08/31 06:12:07;;;;;;;6.40;5.80;;;18.90;1.00;;;;;;5092879;28;20464;-56
2022/08/31 06:14:33;;;;;;;6.83;6.03;;;18.80;1.00;;;;;;5089987;28;20186;-54
2022/08/31 06:16:58;;;;;;;8.00;6.10;;;18.80;1.00;;;;;;5093056;28;20241;-56
2022/08/31 06:19:25;;;;;;;7.50;6.67;;;18.80;1.00;;;;;;5090950;28;20202;-56
2022/08/31 06:21:51;;;;;;;8.70;6.10;;;19.00;1.00;;;;;;5092837;28;20641;-56
2022/08/31 06:24:18;;;;;;;6.47;5.87;;;19.10;1.00;;;;;;5090929;28;20456;-55
2022/08/31 06:26:51;;;;;;;7.40;5.97;;;19.00;1.00;;;;;;5092148;28;20496;-57
2022/08/31 06:29:16;;;;;;;8.53;6.03;;;19.00;1.00;;;;;;5091865;28;20922;-57
2022/08/31 06:31:59;;;;;;;8.20;6.57;;;19.10;1.00;;;;;;5092610;28;20520;-57
2022/08/31 06:34:27;;;;;;;7.50;6.13;;;19.20;1.00;;;;;;5091231;28;20441;-54
2022/08/31 06:36:53;;;;;;;7.77;5.30;;;19.20;1.00;;;;;;5092474;28;20440;-56
2022/08/31 06:39:19;;;;;;;6.80;6.10;;;19.30;1.00;;;;;;5091574;28;20476;-53
2022/08/31 06:41:44;;;;;;;6.27;5.53;;;19.30;1.00;;;;;;5091250;28;20277;-55
2022/08/31 06:44:12;;;;;;;7.90;5.60;;;19.50;1.00;;;;;;5089836;28;20222;-56
2022/08/31 06:46:44;;;;;;;7.33;5.87;;;19.40;1.00;;;;;;5091390;28;20235;-54
2022/08/31 06:49:09;;;;;;;6.50;5.67;;;19.50;1.00;;;;;;5092366;28;20425;-57
2022/08/31 06:51:36;;;;;;;5.70;4.67;;;19.60;1.00;;;;;;5090502;28;20462;-55
2022/08/31 06:54:07;;;;;;;9.93;6.30;;;19.80;1.00;;;;;;5091255;28;20273;-56
2022/08/31 06:56:45;;;;;;;8.93;6.50;;;19.80;1.00;;;;;;5091162;28;20419;-55
2022/08/31 06:59:11;;;;;;;8.17;5.10;;;19.50;1.00;;;;;;5088288;28;20929;-56
2022/08/31 07:01:57;;;;;;;6.93;5.17;;;19.30;1.00;;;;;;5090020;28;20852;-55
2022/08/31 07:04:25;;;;;;;7.17;4.90;;;19.60;1.00;;;;;;5091800;28;20979;-55
2022/08/31 07:09:57;;;;;;;8.07;5.30;;;19.60;1.00;;;;;;4990140;28;20467;-57
2022/08/31 07:12:23;;;;;;;6.37;5.37;;;19.80;1.00;;;;;;4980625;28;20943;-56
2022/08/31 07:14:48;;;;;;;9.87;5.23;;;19.90;1.00;;;;;;5027683;28;20532;-55
2022/08/31 07:17:34;;;;;;;5.80;5.30;;;20.00;1.00;;;;;;5084186;28;20190;-55
2022/08/31 07:20:00;;;;;;;6.20;5.47;;;20.10;1.00;;;;;;5086262;28;20178;-55
2022/08/31 07:22:25;;;;;;;5.20;4.70;;;20.00;1.00;;;;;;5090694;28;20539;-56
2022/08/31 07:24:51;;;;;;;6.43;5.03;;;20.20;1.00;;;;;;5091564;28;20199;-54
2022/08/31 07:27:17;;;;;;;11.80;5.37;;;20.00;1.00;;;;;;5091486;28;20203;-55
2022/08/31 07:29:43;;;;;;;8.37;5.10;;;20.00;1.00;;;;;;5091669;28;20182;-55
2022/08/31 07:34:36;;;;;;;8.50;5.80;;;20.20;1.00;;;;;;5088151;28;20462;-55
2022/08/31 07:43:18;;;;;;;4.30;4.00;;;20.30;1.00;;;;;;5091384;28;20892;-56
2022/08/31 07:45:44;;;;;;;5.07;4.40;;;20.50;1.00;;;;;;5091116;28;20420;-57
2022/08/31 07:48:09;;;;;;;7.83;4.13;;;20.50;1.00;;;;;;5091549;28;20194;-55
2022/08/31 07:50:36;;;;;;;4.30;3.87;;;20.20;1.00;;;;;;5090779;28;20709;-55
2022/08/31 07:53:02;;;;;;;5.13;3.93;;;19.80;1.00;;;;;;5092091;28;20541;-57
2022/08/31 07:55:28;;;;;;;4.53;4.07;;;20.00;1.00;;;;;;5087565;28;20424;-56
2022/08/31 07:57:56;;;;;;;4.87;4.47;;;20.20;1.00;;;;;;5089294;28;20183;-56
2022/08/31 08:00:26;;;;;;;5.30;4.60;;;20.20;1.00;;;;;;5090841;28;20412;-56
2022/08/31 08:02:52;;;;;;;5.23;4.03;;;20.20;1.00;;;;;;5090784;28;20427;-58
2022/08/31 08:05:21;;;;;;;4.53;4.13;;;20.40;1.00;;;;;;5090347;28;20411;-56
2022/08/31 08:07:50;;;;;;;4.10;3.70;;;20.40;1.00;;;;;;5090629;28;20653;-56
2022/08/31 08:10:18;;;;;;;5.50;4.40;;;20.40;1.00;;;;;;5090991;28;20450;-55
2022/08/31 08:13:04;;;;;;;5.53;4.47;;;20.60;1.00;;;;;;5089852;28;20488;-56
2022/08/31 08:15:32;;;;;;;5.07;3.90;;;20.40;1.00;;;;;;5087644;28;20433;-56
2022/08/31 08:17:58;;;;;;;5.30;4.00;;;20.60;1.00;;;;;;5072605;28;20473;-56
2022/08/31 08:20:25;;;;;;;4.70;3.90;;;20.60;1.00;;;;;;5090565;28;20953;-57
2022/08/31 08:22:52;;;;;;;3.97;3.60;;;20.70;1.00;;;;;;5090106;28;20259;-55
2022/08/31 08:25:19;;;;;;;5.13;4.20;;;20.70;1.00;;;;;;5090113;28;20446;-55
2022/08/31 08:27:45;;;;;;;6.00;4.80;;;21.00;1.00;;;;;;5088903;28;20824;-55
2022/08/31 08:30:12;;;;;;;5.00;4.50;;;21.30;1.00;;;;;;5090176;28;20445;-55
2022/08/31 08:33:02;;;;;;;6.83;4.13;;;21.20;1.00;;;;;;5090227;28;20259;-58
2022/08/31 08:35:29;;;;;;;7.60;4.30;;;21.40;1.00;;;;;;5090419;28;20885;-56
2022/08/31 08:37:56;;;;;;;6.03;4.10;;;21.60;1.00;;;;;;5090283;28;20798;-57
2022/08/31 08:40:42;;;;;;;4.47;3.83;;;21.70;1.00;;;;;;5089416;28;20460;-57
2022/08/31 08:43:15;;;;;;;4.70;4.30;;;22.10;1.00;;;;;;5088645;28;20463;-56
2022/08/31 08:45:43;;;;;;;5.27;4.50;;;22.20;1.00;;;;;;5089615;28;21010;-56
2022/08/31 08:48:12;;;;;;;5.13;3.93;;;22.30;1.00;;;;;;5090179;28;20443;-57
2022/08/31 08:50:39;;;;;;;7.63;3.83;;;22.10;1.00;;;;;;5090283;28;20415;-58
2022/08/31 08:53:09;;;;;;;4.27;3.87;;;22.20;1.00;;;;;;5089374;28;20513;-57
2022/08/31 08:55:37;;;;;;;7.33;4.50;;;22.20;1.00;;;;;;5090168;28;20403;-56
2022/08/31 08:58:09;;;;;;;4.07;3.77;;;21.80;1.00;;;;;;5089532;28;20410;-56
2022/08/31 09:00:36;;;;;;;4.10;3.80;;;21.70;1.00;;;;;;5089738;28;20443;-56
2022/08/31 09:03:05;;;;;;;5.70;4.07;;;21.90;1.00;;;;;;5090061;28;20440;-56
2022/08/31 09:05:39;;;;;;;4.90;4.00;;;21.80;1.00;;;;;;5089895;28;20433;-55
2022/08/31 09:08:15;;;;;;;6.10;3.90;;;22.10;1.00;;;;;;5089942;28;20426;-55
2022/08/31 09:10:59;;;;;;;4.37;3.97;;;22.50;1.00;;;;;;5089543;28;20483;-58
2022/08/31 09:13:47;;;;;;;4.23;3.50;;;22.90;1.00;;;;;;5089783;28;20484;-56
2022/08/31 09:19:14;;;;;;;4.67;4.27;;;22.90;1.00;;;;;;5089951;28;20436;-57
2022/08/31 09:25:19;;;;;;;4.67;4.03;;;21.80;1.00;;;;;;5080999;28;20519;-57
2022/08/31 09:28:06;;;;;;;4.43;4.03;;;21.90;1.00;;;;;;5089566;28;20451;-56
2022/08/31 09:30:43;;;;;;;4.57;3.40;;;21.80;1.00;;;;;;5089496;28;20768;-57
2022/08/31 09:33:31;;;;;;;4.07;3.40;;;21.80;1.00;;;;;;5089253;28;20439;-56
2022/08/31 09:36:15;;;;;;;11.70;3.60;;;22.10;1.00;;;;;;5089541;28;20555;-57
2022/08/31 09:38:45;;;;;;;3.87;3.43;;;21.90;1.00;;;;;;5088167;28;20468;-58
2022/08/31 09:41:29;;;;;;;4.03;3.40;;;22.10;1.00;;;;;;5088921;28;20530;-57
2022/08/31 09:44:21;;;;;;;3.60;3.30;;;22.10;1.00;;;;;;5089567;28;20422;-55
2022/08/31 09:50:35;;;;;;;4.43;3.47;;;22.40;1.00;;;;;;5047808;28;21150;-57
2022/08/31 09:56:36;;;;;;;4.77;3.50;;;22.70;1.00;;;;;;5087274;28;20414;-58
2022/08/31 09:59:04;;;;;;;7.10;3.97;;;22.70;1.00;;;;;;5089531;28;20460;-57
2022/08/31 10:01:49;;;;;;;4.53;4.23;;;22.90;1.00;;;;;;5089459;28;20407;-58
2022/08/31 10:04:22;;;;;;;4.47;4.17;;;22.70;1.00;;;;;;5089646;28;20432;-56
2022/08/31 10:10:21;;;;;;;3.97;3.67;;;22.40;1.00;;;;;;5056223;28;20418;-56
2022/08/31 10:13:19;;;;;;;4.50;4.10;;;22.60;1.00;;;;;;5089517;28;20438;-58
2022/08/31 10:16:00;;;;;;;3.90;3.57;;;22.80;1.00;;;;;;5080395;28;21126;-57
2022/08/31 10:18:42;;;;;;;4.00;3.70;;;23.20;1.00;;;;;;5091167;28;20437;-57
2022/08/31 10:21:19;;;;;;;3.93;3.47;;;23.40;1.00;;;;;;5092824;28;20408;-57
2022/08/31 10:24:27;;;;;;;3.50;3.20;;;23.50;1.00;;;;;;5092281;28;20451;-56
2022/08/31 10:30:57;;;;;;;5.93;3.90;;;23.20;1.00;;;;;;4995323;28;20439;-55
2022/08/31 10:36:57;;;;;;;4.80;3.23;;;23.20;1.00;;;;;;5058452;28;20809;-57
2022/08/31 10:39:45;;;;;;;3.90;3.50;;;23.20;1.00;;;;;;5092485;28;20466;-58
2022/08/31 10:42:18;;;;;;;4.67;3.47;;;23.00;1.00;;;;;;5092562;28;20768;-57
2022/08/31 10:44:57;;;;;;;3.07;2.83;;;23.20;1.00;;;;;;5092723;28;20427;-57
2022/08/31 10:47:24;;;;;;;4.40;2.73;;;23.50;1.00;;;;;;5092824;28;20414;-56
2022/08/31 10:49:59;;;;;;;3.67;3.37;;;23.70;1.00;;;;;;5092381;28;20862;-56
2022/08/31 10:52:47;;;;;;;3.50;3.00;;;24.50;1.00;;;;;;5092239;28;20457;-56
2022/08/31 10:55:27;;;;;;;8.73;2.83;;;23.80;1.00;;;;;;5092308;28;20448;-57
2022/08/31 10:58:22;;;;;;;3.70;3.40;;;23.80;1.00;;;;;;5092240;28;20432;-57
2022/08/31 11:01:00;;;;;;;2.60;2.37;;;23.80;1.00;;;;;;5061428;28;20422;-56
2022/08/31 11:03:58;;;;;;;3.33;2.50;;;23.60;1.00;;;;;;5092130;28;20531;-56
2022/08/31 11:06:33;;;;;;;2.50;2.30;;;23.50;1.00;;;;;;5091929;28;20476;-58
2022/08/31 11:09:40;;;;;;;4.17;2.43;;;23.70;1.00;;;;;;5092063;28;20502;-58
2022/08/31 11:12:12;;;;;;;4.60;3.33;;;23.90;1.00;;;;;;4989484;28;20475;-56
2022/08/31 11:15:05;;;;;;;2.73;2.47;;;24.40;1.00;;;;;;5074862;28;20423;-56
2022/08/31 11:17:58;;;;;;;3.30;2.80;;;24.90;1.00;;;;;;5091061;28;20406;-57
2022/08/31 11:20:32;;;;;;;4.50;3.73;;;25.60;1.00;;;;;;5091908;28;20403;-57
2022/08/31 11:23:04;;;;;;;4.00;3.50;;;25.90;1.00;;;;;;5091640;28;20493;-57
2022/08/31 11:25:46;;;;;;;2.73;2.00;;;26.00;1.00;;;;;;5091404;28;20422;-56
2022/08/31 11:28:29;;;;;;;5.17;3.30;;;25.90;1.00;;;;;;5091331;28;21141;-58
2022/08/31 11:30:55;;;;;;;2.90;2.60;;;25.80;1.00;;;;;;5086942;28;20474;-57
2022/08/31 11:33:27;;;;;;;6.53;2.13;;;24.80;1.00;;;;;;5091312;28;20969;-58
2022/08/31 11:38:53;;;;;;;2.03;1.83;;;25.00;1.00;;;;;;5091108;28;21083;-57
2022/08/31 11:41:46;;;;;;;4.10;2.53;;;24.80;1.00;;;;;;5090995;28;20924;-59
2022/08/31 11:44:36;;;;;;;3.63;2.07;;;24.80;1.00;;;;;;5087691;28;20416;-55
2022/08/31 11:47:25;;;;;;;2.87;1.53;;;24.90;1.00;;;;;;5091370;28;20901;-57
2022/08/31 11:49:55;;;;;;;3.43;1.80;;;24.50;1.00;;;;;;5090345;28;20747;-56
2022/08/31 11:52:23;;;;;;;1.80;1.70;;;24.10;1.00;;;;;;5091334;28;20518;-57
2022/08/31 11:54:49;;;;;;;2.17;1.70;;;24.10;1.00;;;;;;5091205;28;20441;-57
2022/08/31 11:57:23;;;;;;;4.33;2.00;;;24.30;1.00;;;;;;5090793;28;20422;-57
2022/08/31 11:59:50;;;;;;;2.10;1.90;;;24.30;1.00;;;;;;5091063;28;20415;-56
2022/08/31 12:02:19;;;;;;;2.20;2.00;;;24.20;1.00;;;;;;5091034;28;20449;-57
2022/08/31 12:04:46;;;;;;;1.60;1.50;;;24.20;1.00;;;;;;5088703;28;20440;-57
2022/08/31 12:07:23;;;;;;;2.23;1.90;;;24.30;1.00;;;;;;5091071;28;21109;-57
2022/08/31 12:10:19;;;;;;;2.47;2.13;;;24.30;1.00;;;;;;5090893;28;20894;-57
2022/08/31 12:12:54;;;;;;;2.10;2.00;;;24.10;1.00;;;;;;5090734;28;20475;-57
2022/08/31 12:15:40;;;;;;;2.43;1.87;;;24.10;1.00;;;;;;5090096;28;20410;-56
2022/08/31 12:18:29;;;;;;;3.83;2.47;;;24.10;1.00;;;;;;5090101;28;20987;-56
2022/08/31 12:24:19;;;;;;;2.67;2.47;;;23.90;1.00;;;;;;5089888;28;20407;-58
2022/08/31 12:27:13;;;;;;;5.43;2.47;;;24.00;1.00;;;;;;5090432;28;20404;-57
2022/08/31 12:29:39;;;;;;;5.77;2.10;;;24.10;1.00;;;;;;5090643;28;20449;-57
2022/08/31 12:32:24;;;;;;;3.13;1.90;;;24.10;1.00;;;;;;5090222;28;20513;-56
2022/08/31 12:35:13;;;;;;;2.40;1.60;;;24.10;1.00;;;;;;5089770;28;20949;-57
2022/08/31 12:37:39;;;;;;;2.60;1.87;;;24.20;1.00;;;;;;5090345;28;20413;-57
2022/08/31 12:40:10;;;;;;;2.00;1.50;;;24.10;1.00;;;;;;5089882;28;20460;-56
2022/08/31 12:42:41;;;;;;;2.40;1.77;;;24.10;1.00;;;;;;5090017;28;20419;-56
2022/08/31 12:45:11;;;;;;;2.73;1.90;;;24.30;1.00;;;;;;5090387;28;20786;-57
2022/08/31 12:47:43;;;;;;;2.40;2.20;;;24.60;1.00;;;;;;5090150;28;20871;-58
2022/08/31 12:50:30;;;;;;;1.93;1.67;;;25.10;1.00;;;;;;5090075;28;20419;-56
2022/08/31 12:53:05;;;;;;;1.87;1.53;;;25.20;1.00;;;;;;5089944;28;20464;-58
2022/08/31 12:55:43;;;;;;;2.00;1.43;;;25.20;1.00;;;;;;5090246;28;20539;-57
2022/08/31 12:58:11;;;;;;;3.57;1.80;;;25.30;1.00;;;;;;5088999;28;20446;-59
2022/08/31 13:00:38;;;;;;;1.40;1.30;;;25.50;1.00;;;;;;5089965;28;20445;-56
2022/08/31 13:03:30;;;;;;;2.10;1.60;;;25.70;1.00;;;;;;5090148;28;20537;-56
2022/08/31 13:06:12;;;;;;;1.97;1.73;;;25.70;1.00;;;;;;5066955;28;20419;-57
2022/08/31 13:08:44;;;;;;;2.03;1.57;;;25.90;1.00;;;;;;5090085;28;20411;-57
2022/08/31 13:11:34;;;;;;;2.00;1.53;;;26.00;1.00;;;;;;5089745;28;20529;-57
2022/08/31 13:14:23;;;;;;;2.27;1.60;;;26.10;1.00;;;;;;5089108;28;20441;-57
2022/08/31 13:16:55;;;;;;;1.80;1.40;;;26.00;1.00;;;;;;5089420;28;20455;-57
2022/08/31 13:19:26;;;;;;;2.37;1.47;;;25.80;1.00;;;;;;5088633;28;20457;-56
2022/08/31 13:21:56;;;;;;;5.30;2.27;;;25.50;1.00;;;;;;5089857;28;20967;-57
2022/08/31 13:24:29;;;;;;;2.37;1.60;;;25.30;1.00;;;;;;5089446;28;20440;-58
2022/08/31 13:27:03;;;;;;;1.50;1.40;;;24.90;1.00;;;;;;5089470;28;20945;-57
2022/08/31 13:29:28;;;;;;;1.80;1.47;;;24.40;1.00;;;;;;5089766;28;20433;-57
2022/08/31 13:31:54;;;;;;;2.50;1.90;;;24.10;1.00;;;;;;5089388;28;20456;-57
2022/08/31 13:34:20;;;;;;;3.00;1.60;;;24.00;1.00;;;;;;5089200;28;20191;-57
2022/08/31 13:36:50;;;;;;;3.67;2.30;;;24.00;1.00;;;;;;5089754;28;20510;-56
2022/08/31 13:39:44;;;;;;;5.73;2.40;;;23.90;1.00;;;;;;5089231;28;20274;-56
2022/08/31 13:42:41;;;;;;;2.20;2.10;;;23.40;1.00;;;;;;5085717;28;20490;-57
2022/08/31 13:45:23;;;;;;;5.27;2.13;;;23.10;1.00;;;;;;5088779;28;20816;-57
2022/08/31 13:47:59;;;;;;;4.80;2.53;;;23.10;1.00;;;;;;5089588;28;20783;-56
2022/08/31 13:50:32;;;;;;;3.00;1.77;;;23.30;1.00;;;;;;5089414;28;20474;-57
2022/08/31 13:53:03;;;;;;;2.23;1.87;;;23.30;1.00;;;;;;5091003;28;20471;-56
2022/08/31 13:55:36;;;;;;;2.60;2.20;;;23.10;1.00;;;;;;5093399;28;20404;-56
2022/08/31 13:58:23;;;;;;;4.60;2.50;;;23.10;1.00;;;;;;5093235;28;20407;-56
2022/08/31 14:00:56;;;;;;;5.53;1.97;;;23.10;1.00;;;;;;5093163;28;20396;-58
2022/08/31 14:03:55;;;;;;;2.40;2.13;;;23.40;1.00;;;;;;5093181;28;20908;-57
2022/08/31 14:06:26;;;;;;;2.27;2.10;;;23.70;1.00;;;;;;5093386;28;20862;-57
2022/08/31 14:09:00;;;;;;;3.27;1.70;;;23.70;1.00;;;;;;5092674;28;21167;-58